ADDS METAR Data INFO
IDs: Format: Raw Decoded Include TAF

Data at: 1303 UTC 20 Jan 2018

METAR for:KOSU (Columbus/Ohio State, OH, US)
Text:KOSU 201253Z 21009KT 10SM CLR M01/M05 A3002 RMK AO2 SLP175 T10061050
Temperature: -0.6°C ( 31°F)
Dewpoint: -5.0°C ( 23°F) [RH = 72%]
Pressure (altimeter):30.02 inches Hg (1016.7 mb) [Sea level pressure: 1017.5 mb]
Winds:from the SSW (210 degrees) at 10 MPH (9 knots; 4.6 m/s)
Visibility:10 or more sm (16+ km)
Ceiling:at least 12,000 feet AGL
Clouds:sky clear below 12,000 feet AGL